Time;durP1;ratioP1;P1;durP2;ratioP2;P2;SDS_P1;SDS_P2;PMS_P1;PMS_P2;Temp;Humidity;BMP_temperature;BMP_pressure;BME280_temperature;BME280_humidity;BME280_pressure;Samples;Min_cycle;Max_cycle;Signal;HPM_P1;HPM_P2
2022/05/25 00:00:18;;;;;;;1.70;0.68;;;;;;;13.22;75.67;99465.69;12254416;19;20475;-85
2022/05/25 00:04:21;;;;;;;1.98;1.08;;;;;;;13.25;75.93;99466.25;12203499;19;20010;-80
2022/05/25 00:08:24;;;;;;;3.90;0.98;;;;;;;13.23;75.78;99467.34;12225090;19;20006;-79
2022/05/25 00:12:27;;;;;;;0.70;0.65;;;;;;;13.25;75.74;99475.41;12224785;19;20014;-81
2022/05/25 00:16:29;;;;;;;1.38;0.65;;;;;;;13.25;75.76;99485.63;12190827;19;20082;-80
2022/05/25 00:20:31;;;;;;;1.38;0.70;;;;;;;13.23;75.93;99494.19;12217628;19;20006;-81
2022/05/25 00:24:32;;;;;;;2.58;1.10;;;;;;;13.22;76.93;99489.75;12188098;19;20006;-80
2022/05/25 00:28:34;;;;;;;2.28;0.90;;;;;;;13.22;77.21;99498.88;12210580;19;20121;-79
2022/05/25 00:32:36;;;;;;;3.42;0.80;;;;;;;13.21;77.05;99490.88;12216980;19;20014;-81
2022/05/25 00:36:38;;;;;;;3.45;0.95;;;;;;;13.21;76.97;99485.34;12198404;19;20010;-81
2022/05/25 00:40:45;;;;;;;4.40;0.75;;;;;;;13.19;77.13;99485.59;12213391;19;20039;-80
2022/05/25 00:44:47;;;;;;;1.15;0.90;;;;;;;13.19;77.14;99468.19;12221722;19;20006;-80
2022/05/25 00:48:53;;;;;;;2.58;0.88;;;;;;;13.16;77.34;99482.56;12195361;19;20032;-83
2022/05/25 00:52:54;;;;;;;1.63;0.70;;;;;;;13.11;77.44;99486.13;12220430;19;20062;-80
2022/05/25 00:57:01;;;;;;;0.82;0.68;;;;;;;13.08;77.87;99478.38;12220403;19;20013;-79
2022/05/25 01:01:04;;;;;;;1.30;0.63;;;;;;;13.04;77.98;99477.28;12200639;19;20059;-81
2022/05/25 01:05:06;;;;;;;;;;;;;;;13.00;78.25;99490.84;12214559;19;20468;-79
2022/05/25 01:09:35;;;;;;;2.10;0.85;;;;;;;12.97;78.11;99490.56;12219513;19;20005;-80
2022/05/25 01:14:08;;;;;;;1.45;0.85;;;;;;;12.93;78.44;99494.97;12190641;19;20356;-80
2022/05/25 01:18:28;;;;;;;2.50;1.00;;;;;;;12.88;78.67;99500.47;12217584;19;20516;-80
2022/05/25 01:22:38;;;;;;;2.28;1.10;;;;;;;12.81;78.78;99495.22;12189788;19;20073;-80
2022/05/25 01:26:52;;;;;;;3.85;1.05;;;;;;;12.76;79.25;99497.97;12216945;19;20006;-80
2022/05/25 01:30:56;;;;;;;2.83;0.93;;;;;;;12.70;79.26;99505.41;12189734;19;20771;-81
2022/05/25 01:35:13;;;;;;;1.80;1.00;;;;;;;12.62;79.77;99505.13;12213857;19;20003;-82
2022/05/25 01:39:24;;;;;;;4.18;0.82;;;;;;;12.53;80.24;99504.81;12218685;19;20480;-80
2022/05/25 01:43:43;;;;;;;5.72;0.93;;;;;;;12.46;80.72;99509.72;12194595;19;20014;-79
2022/05/25 01:47:48;;;;;;;2.47;1.20;;;;;;;12.36;81.05;99516.03;12213690;19;20051;-80
2022/05/25 01:52:07;;;;;;;2.05;0.85;;;;;;;12.26;81.99;99511.31;12196950;19;20360;-79
2022/05/25 01:56:13;;;;;;;3.38;1.10;;;;;;;12.16;82.87;99508.47;12208874;19;20130;-80
2022/05/25 02:00:30;;;;;;;3.92;1.15;;;;;;;12.11;83.09;99513.16;12215775;19;20079;-82
2022/05/25 02:04:31;;;;;;;2.85;1.30;;;;;;;12.02;83.26;99523.88;12190338;19;20377;-78
2022/05/25 02:08:48;;;;;;;1.98;1.00;;;;;;;11.97;83.45;99527.44;12213372;19;20010;-81
2022/05/25 02:13:00;;;;;;;1.88;1.08;;;;;;;11.90;84.09;99528.75;12189230;19;20452;-80
2022/05/25 02:17:39;;;;;;;3.25;0.98;;;;;;;11.83;84.70;99527.00;12218479;19;20027;-80
2022/05/25 02:21:55;;;;;;;8.50;1.30;;;;;;;11.78;84.96;99523.41;12189600;19;20027;-80
2022/05/25 02:26:05;;;;;;;2.95;1.17;;;;;;;11.75;85.31;99529.44;12200366;19;20028;-81
2022/05/25 02:30:11;;;;;;;3.28;1.02;;;;;;;11.68;85.80;99529.66;12211740;19;20490;-81
2022/05/25 02:34:16;;;;;;;2.83;1.58;;;;;;;11.64;86.52;99531.28;12198857;19;20014;-83
2022/05/25 02:38:19;;;;;;;2.22;1.30;;;;;;;11.61;87.03;99537.34;12207323;19;20018;-82
2022/05/25 02:42:23;;;;;;;;;;;;;;;11.58;87.64;99541.47;12215764;19;20006;-80
2022/05/25 02:46:25;;;;;;;5.20;1.33;;;;;;;11.57;87.08;99548.09;12200959;19;19918;-81
2022/05/25 02:50:27;;;;;;;2.78;1.00;;;;;;;11.56;87.54;99548.31;12220964;19;20042;-80
2022/05/25 02:54:29;;;;;;;2.90;1.52;;;;;;;11.51;88.37;99542.75;12208804;19;20020;-80
2022/05/25 02:58:30;;;;;;;4.18;1.23;;;;;;;11.47;88.76;99549.91;12221674;19;20078;-80
2022/05/25 03:02:32;;;;;;;3.10;1.42;;;;;;;11.45;88.95;99554.84;12220353;19;20071;-80
2022/05/25 03:06:34;;;;;;;2.42;1.10;;;;;;;11.43;89.39;99554.28;12196626;19;20019;-81
2022/05/25 03:10:36;;;;;;;3.10;1.20;;;;;;;11.43;89.28;99559.81;12221895;19;20015;-81
2022/05/25 03:14:37;;;;;;;2.03;1.25;;;;;;;11.38;89.44;99563.34;12221221;19;20090;-79
2022/05/25 03:18:39;;;;;;;2.80;1.33;;;;;;;11.34;89.95;99563.03;12193820;19;20097;-81
2022/05/25 03:22:44;;;;;;;2.88;1.20;;;;;;;11.34;90.55;99562.22;12215625;19;20094;-81
2022/05/25 03:26:45;;;;;;;3.22;1.20;;;;;;;11.28;90.48;99569.59;12213684;19;20096;-80
2022/05/25 03:30:47;;;;;;;5.50;1.40;;;;;;;11.25;90.88;99564.59;12199659;19;20039;-81
2022/05/25 03:34:49;;;;;;;4.20;1.67;;;;;;;11.22;91.15;99578.91;12214214;19;20006;-79
2022/05/25 03:38:51;;;;;;;2.08;1.35;;;;;;;11.17;91.60;99579.69;12205257;19;20284;-82
2022/05/25 03:42:53;;;;;;;5.20;1.52;;;;;;;11.16;92.06;99583.53;12187240;19;20115;-78
2022/05/25 03:46:54;;;;;;;2.20;1.00;;;;;;;11.13;92.04;99578.53;12210312;19;20010;-79
2022/05/25 03:50:56;;;;;;;2.97;1.40;;;;;;;11.11;92.56;99582.66;12207218;19;20074;-79
2022/05/25 03:54:58;;;;;;;2.72;1.20;;;;;;;11.10;92.90;99590.09;12192979;19;20069;-80
2022/05/25 03:59:00;;;;;;;3.13;1.40;;;;;;;11.11;92.71;99593.69;12213398;19;20135;-80
2022/05/25 04:03:03;;;;;;;2.85;1.50;;;;;;;11.12;92.82;99592.56;12219929;19;20369;-79
2022/05/25 04:07:05;;;;;;;;;;;;;;;11.12;93.70;99600.84;12190514;19;20082;-79
2022/05/25 04:11:07;;;;;;;2.95;1.42;;;;;;;11.12;93.12;99604.47;12212982;19;19915;-82
2022/05/25 04:15:11;;;;;;;1.65;1.20;;;;;;;11.12;93.03;99604.47;12212464;19;20682;-79
2022/05/25 04:19:13;;;;;;;2.05;1.27;;;;;;;11.10;93.55;99612.16;12189569;19;20041;-80
2022/05/25 04:23:16;;;;;;;3.53;1.20;;;;;;;11.11;93.67;99601.94;12214630;19;20399;-78
2022/05/25 04:27:19;;;;;;;3.47;1.37;;;;;;;11.12;93.55;99614.63;12206625;19;20101;-80
2022/05/25 04:31:20;;;;;;;4.53;1.50;;;;;;;11.10;93.58;99612.16;12193826;19;20007;-80
2022/05/25 04:35:23;;;;;;;3.13;1.27;;;;;;;11.11;93.43;99613.81;12202157;19;20011;-80
2022/05/25 04:39:25;;;;;;;4.88;1.30;;;;;;;11.13;93.47;99619.09;12220311;19;20003;-79
2022/05/25 04:43:26;;;;;;;4.68;1.60;;;;;;;11.15;94.04;99626.00;12192371;19;20080;-80
2022/05/25 04:47:30;;;;;;;2.75;1.38;;;;;;;11.17;93.90;99625.75;12206986;19;20049;-81
2022/05/25 04:51:31;;;;;;;2.35;1.52;;;;;;;11.17;93.88;99637.59;12183870;19;20074;-79
2022/05/25 05:00:00;;;;;;;2.58;1.65;;;;;;;11.17;94.68;99645.88;12216176;19;20014;-79
2022/05/25 05:04:02;;;;;;;2.33;1.35;;;;;;;11.21;94.96;99662.72;12194387;19;20014;-80
2022/05/25 05:08:05;;;;;;;3.00;1.20;;;;;;;11.24;94.76;99667.72;12209747;19;20019;-83
2022/05/25 05:12:07;;;;;;;3.28;1.63;;;;;;;11.27;95.09;99671.91;12216451;19;20038;-80
2022/05/25 05:16:15;;;;;;;3.63;1.52;;;;;;;11.31;95.81;99671.13;12187862;19;20018;-80
2022/05/25 05:20:18;;;;;;;3.67;1.80;;;;;;;11.39;95.37;99676.22;12206688;19;20014;-81
2022/05/25 05:24:27;;;;;;;4.97;1.50;;;;;;;11.48;95.34;99695.91;12204640;19;20077;-79
2022/05/25 05:28:31;;;;;;;5.00;2.45;;;;;;;11.55;95.84;99691.00;12185703;19;20058;-78
2022/05/25 05:32:35;;;;;;;5.05;1.90;;;;;;;11.68;95.43;99686.97;12197632;19;20071;-77
2022/05/25 05:36:54;;;;;;;5.20;2.05;;;;;;;11.77;95.39;99699.22;12180964;19;20483;-77
2022/05/25 05:40:56;;;;;;;5.90;2.58;;;;;;;11.84;95.47;99699.88;12200534;19;20557;-78
2022/05/25 05:45:03;;;;;;;5.25;2.35;;;;;;;11.95;95.37;99703.56;12204094;19;20021;-78
2022/05/25 05:49:05;;;;;;;4.47;2.33;;;;;;;12.12;94.29;99706.22;12180433;19;20027;-78
2022/05/25 05:53:10;;;;;;;4.90;2.17;;;;;;;12.27;93.72;99720.16;12212143;19;20019;-80
2022/05/25 05:57:13;;;;;;;6.03;2.75;;;;;;;12.43;93.27;99720.28;12204512;19;20507;-77
2022/05/25 06:01:15;;;;;;;4.45;2.17;;;;;;;12.58;92.79;99725.91;12184494;19;20002;-79
2022/05/25 06:05:17;;;;;;;3.58;2.20;;;;;;;12.71;92.26;99728.25;12205541;19;20030;-78
2022/05/25 06:09:18;;;;;;;3.95;2.35;;;;;;;12.86;91.96;99738.56;12197774;19;20006;-78
2022/05/25 06:13:20;;;;;;;5.30;2.50;;;;;;;13.02;91.04;99736.72;12182874;19;20022;-79
2022/05/25 06:21:43;;;;;;;5.28;2.28;;;;;;;13.40;89.17;99748.56;12183639;19;20236;-79
2022/05/25 06:25:44;;;;;;;5.03;2.45;;;;;;;13.53;88.63;99759.13;12199699;19;20106;-78
2022/05/25 06:29:48;;;;;;;5.15;2.40;;;;;;;13.71;88.16;99755.06;12195245;19;20367;-80
2022/05/25 06:33:51;;;;;;;6.68;2.50;;;;;;;13.86;87.24;99759.81;12154492;19;20960;-83
2022/05/25 06:37:53;;;;;;;3.40;2.13;;;;;;;14.06;85.88;99767.34;12205075;19;20062;-79
2022/05/25 06:41:54;;;;;;;4.72;2.22;;;;;;;14.17;84.71;99762.66;12208171;19;20014;-79
2022/05/25 06:45:56;;;;;;;4.28;2.28;;;;;;;14.28;84.19;99767.94;12182572;19;20044;-80
2022/05/25 06:49:58;;;;;;;5.43;2.65;;;;;;;14.45;82.91;99775.97;12206814;19;20054;-80
2022/05/25 06:54:00;;;;;;;6.18;2.20;;;;;;;14.60;80.92;99786.28;12202642;19;20007;-82
2022/05/25 06:58:02;;;;;;;4.80;2.92;;;;;;;14.82;80.65;99786.00;12186577;19;20029;-81
2022/05/25 07:02:04;;;;;;;5.72;1.92;;;;;;;15.09;80.29;99793.19;12202575;19;20460;-82
2022/05/25 07:06:08;;;;;;;4.13;1.90;;;;;;;15.30;78.30;99788.44;12208223;19;20046;-80
2022/05/25 07:10:10;;;;;;;3.85;1.73;;;;;;;15.53;77.62;99795.28;12186215;19;20086;-79
2022/05/25 07:14:11;;;;;;;6.03;1.83;;;;;;;15.74;74.49;99796.91;12195124;19;20019;-80
2022/05/25 07:18:13;;;;;;;4.50;1.40;;;;;;;16.02;73.04;99802.88;12205988;19;20220;-81
2022/05/25 07:22:15;;;;;;;9.23;2.10;;;;;;;16.21;71.50;99803.91;12191358;19;20023;-80
2022/05/25 07:26:22;;;;;;;4.63;1.70;;;;;;;16.35;71.38;99802.13;12211485;19;20023;-79
2022/05/25 07:30:24;;;;;;;9.32;2.33;;;;;;;16.53;70.17;99802.56;12218193;19;20018;-80
2022/05/25 07:34:30;;;;;;;6.73;2.50;;;;;;;16.80;68.88;99805.69;12196792;19;20014;-79
2022/05/25 07:38:31;;;;;;;3.25;1.70;;;;;;;17.11;67.75;99807.41;12218994;19;20007;-81
2022/05/25 07:42:34;;;;;;;5.13;2.00;;;;;;;17.33;67.00;99801.31;12190391;19;20018;-81
2022/05/25 07:46:36;;;;;;;6.18;1.60;;;;;;;17.48;65.43;99801.97;12216637;19;20027;-82
2022/05/25 07:50:39;;;;;;;4.00;2.00;;;;;;;17.58;64.71;99806.63;12211477;19;20090;-80
2022/05/25 07:54:43;;;;;;;6.10;2.40;;;;;;;17.80;63.80;99811.66;12193066;19;20024;-80
2022/05/25 07:58:45;;;;;;;5.07;1.80;;;;;;;17.86;63.91;99810.47;12220762;19;20482;-81
2022/05/25 08:07:09;;;;;;;4.25;1.20;;;;;;;18.18;60.65;99812.56;12200587;19;20003;-82
2022/05/25 08:11:15;;;;;;;3.10;1.13;;;;;;;18.29;59.40;99815.19;12219340;19;20002;-80
2022/05/25 08:15:17;;;;;;;2.03;0.73;;;;;;;18.36;56.45;99822.06;12213709;19;20010;-79
2022/05/25 08:19:19;;;;;;;2.40;1.30;;;;;;;18.44;55.77;99818.59;12194273;19;20011;-80
2022/05/25 08:23:21;;;;;;;2.22;1.10;;;;;;;18.25;56.32;99812.19;12226827;19;20014;-79
2022/05/25 08:27:23;;;;;;;1.63;1.00;;;;;;;18.34;56.19;99823.50;12223278;19;20011;-79
2022/05/25 08:31:24;;;;;;;1.77;0.80;;;;;;;18.62;54.65;99819.72;12191382;19;20023;-79
2022/05/25 08:35:27;;;;;;;2.47;0.80;;;;;;;18.64;53.66;99817.44;12220569;19;20006;-81
2022/05/25 08:39:30;;;;;;;1.13;0.90;;;;;;;18.88;54.17;99816.53;12197538;19;20014;-79
2022/05/25 08:43:39;;;;;;;1.00;0.70;;;;;;;19.23;52.68;99817.88;12215193;19;20093;-81
2022/05/25 08:47:46;;;;;;;1.98;0.95;;;;;;;19.44;52.58;99811.91;12204776;19;20014;-80
2022/05/25 08:51:51;;;;;;;1.30;0.52;;;;;;;19.29;49.31;99811.03;12196209;19;20472;-80
2022/05/25 08:56:11;;;;;;;0.95;0.50;;;;;;;19.30;48.13;99806.28;12214082;19;20041;-81
2022/05/25 09:00:17;;;;;;;1.77;0.40;;;;;;;19.49;46.47;99814.59;12214412;19;20412;-84
2022/05/25 09:04:23;;;;;;;0.93;0.55;;;;;;;19.33;48.21;99808.47;12193177;19;20010;-80
2022/05/25 09:08:45;;;;;;;1.55;0.50;;;;;;;18.89;48.07;99816.25;12210398;19;20045;-80
2022/05/25 09:12:53;;;;;;;0.98;0.70;;;;;;;18.68;48.89;99817.69;12193872;19;20003;-82
2022/05/25 09:17:00;;;;;;;2.05;0.50;;;;;;;19.14;47.67;99819.72;12209681;19;20074;-81
2022/05/25 09:21:04;;;;;;;6.10;0.63;;;;;;;19.13;47.94;99815.28;12213472;19;20059;-81
2022/05/25 09:25:08;;;;;;;1.08;0.55;;;;;;;19.55;47.85;99825.38;12191253;19;19999;-80
2022/05/25 09:29:10;;;;;;;1.50;0.40;;;;;;;19.87;45.80;99818.06;12204240;19;22116;-82
2022/05/25 09:33:20;;;;;;;;;;;;;;;19.89;44.30;99812.97;12216840;19;20062;-83
2022/05/25 09:37:36;;;;;;;3.20;0.70;;;;;;;20.22;44.97;99816.44;12194734;19;19914;-82
2022/05/25 09:41:41;;;;;;;2.00;0.55;;;;;;;20.75;44.05;99823.38;12217033;19;20078;-80
2022/05/25 09:45:47;;;;;;;1.75;0.60;;;;;;;21.28;43.36;99825.38;12183716;19;20006;-81
2022/05/25 09:49:53;;;;;;;1.85;0.70;;;;;;;21.57;41.92;99815.66;12207630;19;20014;-81
2022/05/25 09:54:00;;;;;;;2.88;0.52;;;;;;;20.87;43.18;99829.22;12217864;19;20095;-82
2022/05/25 09:58:07;;;;;;;2.22;0.57;;;;;;;21.20;42.65;99826.16;12190102;19;20447;-81
2022/05/25 10:02:21;;;;;;;1.17;0.60;;;;;;;21.42;42.22;99824.47;12205244;19;20024;-83
2022/05/25 10:06:35;;;;;;;1.00;0.52;;;;;;;20.81;42.65;99819.28;12214208;19;20007;-81
2022/05/25 10:10:56;;;;;;;3.10;0.73;;;;;;;20.32;43.47;99821.00;12184915;19;20006;-80
2022/05/25 10:15:04;;;;;;;0.75;0.40;;;;;;;20.39;44.01;99812.16;12206311;19;20003;-80
2022/05/25 10:19:12;;;;;;;2.08;0.52;;;;;;;20.00;43.87;99828.41;12186161;19;20078;-81
2022/05/25 10:23:20;;;;;;;0.57;0.32;;;;;;;19.78;44.59;99817.97;12208641;19;20014;-81
2022/05/25 10:27:33;;;;;;;4.35;0.80;;;;;;;20.01;44.54;99807.66;12203728;19;20352;-83
2022/05/25 10:40:44;;;;;;;0.88;0.60;;;;;;;21.94;41.54;99805.88;12174921;19;20014;-79
2022/05/25 10:45:10;;;;;;;1.52;0.60;;;;;;;22.46;39.51;99794.78;12203899;19;20700;-82
2022/05/25 10:49:22;;;;;;;3.17;0.57;;;;;;;22.31;40.72;99800.88;12180670;19;20082;-81
2022/05/25 10:53:43;;;;;;;1.45;0.60;;;;;;;22.28;39.71;99788.34;12212115;19;20006;-80
2022/05/25 10:58:04;;;;;;;2.25;0.50;;;;;;;21.86;40.42;99801.06;12187857;19;20015;-80
2022/05/25 11:02:28;;;;;;;1.83;0.50;;;;;;;21.59;40.79;99786.16;12222636;19;20070;-81
2022/05/25 11:06:59;;;;;;;3.25;0.70;;;;;;;21.80;40.00;99792.00;12193272;19;20014;-83
2022/05/25 11:11:51;;;;;;;2.03;0.70;;;;;;;21.65;40.07;99783.19;12221845;19;20082;-81
2022/05/25 11:16:19;;;;;;;2.13;0.45;;;;;;;22.35;39.48;99784.22;12194581;19;20014;-79
2022/05/25 11:20:44;;;;;;;0.75;0.55;;;;;;;22.77;37.96;99790.16;12217065;19;20372;-80
2022/05/25 11:25:02;;;;;;;3.20;0.68;;;;;;;22.88;37.57;99777.41;12197583;19;20062;-81
2022/05/25 11:29:28;;;;;;;1.13;0.60;;;;;;;23.08;35.16;99785.19;12215257;19;20002;-82
2022/05/25 11:33:52;;;;;;;1.90;0.65;;;;;;;23.48;35.74;99782.06;12206923;19;20360;-82
2022/05/25 11:38:33;;;;;;;1.42;0.60;;;;;;;24.26;34.81;99767.56;12221419;19;20070;-82
2022/05/25 11:42:46;;;;;;;0.75;0.43;;;;;;;25.01;33.03;99787.31;12202742;19;20500;-79
2022/05/25 11:46:49;;;;;;;2.05;0.82;;;;;;;25.29;33.48;99778.28;12217021;19;20401;-82
2022/05/25 11:51:23;;;;;;;2.20;0.50;;;;;;;24.56;33.05;99785.25;12216833;19;20022;-82
2022/05/25 11:55:32;;;;;;;1.30;0.50;;;;;;;23.54;34.72;99780.72;12203369;19;20107;-80
2022/05/25 11:59:36;;;;;;;3.88;0.50;;;;;;;23.58;34.40;99778.84;12216435;19;20014;-82
2022/05/25 12:03:46;;;;;;;3.80;0.60;;;;;;;22.97;35.09;99790.31;12193264;19;20356;-81
2022/05/25 12:08:04;;;;;;;1.48;0.63;;;;;;;22.12;36.44;99781.50;12214736;19;21359;-81
2022/05/25 12:12:25;;;;;;;2.70;0.68;;;;;;;22.47;36.91;99773.13;12219766;19;20070;-81
2022/05/25 12:16:36;;;;;;;2.75;0.40;;;;;;;23.96;33.26;99772.41;12192741;19;20765;-82
2022/05/25 12:20:47;;;;;;;2.78;0.60;;;;;;;25.08;31.84;99775.47;12216113;19;20007;-81
2022/05/25 12:24:52;;;;;;;0.80;0.40;;;;;;;24.51;32.49;99779.84;12202195;19;21496;-81
2022/05/25 12:29:20;;;;;;;0.50;0.50;;;;;;;23.51;32.98;99775.75;12215602;19;20465;-82
2022/05/25 12:33:24;;;;;;;1.10;0.43;;;;;;;23.37;33.22;99770.34;12216905;19;20050;-82
2022/05/25 12:37:30;;;;;;;1.10;0.40;;;;;;;23.48;33.08;99765.19;12196814;19;20018;-82
2022/05/25 12:41:38;;;;;;;0.93;0.60;;;;;;;24.39;32.08;99779.75;12221483;19;20014;-81
2022/05/25 12:50:48;;;;;;;0.43;0.40;;;;;;;28.18;26.75;99763.28;12208616;19;20006;-82
2022/05/25 12:54:50;;;;;;;1.13;0.60;;;;;;;28.44;26.70;99773.22;12190706;19;20060;-82
2022/05/25 12:58:55;;;;;;;4.32;0.50;;;;;;;28.23;26.46;99775.53;12215982;19;20387;-83
2022/05/25 13:03:13;;;;;;;2.13;0.60;;;;;;;27.66;25.77;99792.78;12221278;19;20018;-84
2022/05/25 13:07:33;;;;;;;1.83;0.40;;;;;;;28.59;25.07;99778.00;12190827;19;20472;-85
2022/05/25 13:11:50;;;;;;;1.05;0.30;;;;;;;28.86;25.25;99781.00;12215162;19;20006;-86
2022/05/25 13:15:58;;;;;;;1.42;0.40;;;;;;;27.58;26.14;99799.44;12188514;19;20021;-83
2022/05/25 13:20:00;;;;;;;2.90;0.57;;;;;;;27.89;25.72;99789.31;12216437;19;20107;-83
2022/05/25 13:24:20;;;;;;;2.63;0.47;;;;;;;29.23;23.62;99781.31;12216756;19;19999;-83
2022/05/25 13:28:49;;;;;;;0.75;0.50;;;;;;;30.40;23.03;99769.47;12194430;19;20071;-84
2022/05/25 13:33:11;;;;;;;1.40;0.60;;;;;;;29.98;22.69;99765.63;12216786;19;20014;-85
2022/05/25 13:37:14;;;;;;;;;;;;;;;30.50;22.58;99770.84;12185510;19;20014;-81
2022/05/25 13:41:56;;;;;;;2.25;0.47;;;;;;;28.99;22.75;99771.09;12207625;19;19919;-84
2022/05/25 13:45:58;;;;;;;1.73;0.70;;;;;;;28.57;24.27;99765.38;12189988;19;20010;-84
2022/05/25 13:50:00;;;;;;;;;;;;;;;29.93;23.06;99767.97;12211634;19;20023;-85
2022/05/25 13:54:25;;;;;;;1.10;0.98;;;;;;;31.01;21.61;99762.56;12205698;19;19914;-88
2022/05/25 13:58:46;;;;;;;1.95;0.63;;;;;;;32.36;21.82;99781.25;12192369;19;20006;-84
2022/05/25 14:03:05;;;;;;;1.25;0.52;;;;;;;32.45;21.10;99767.50;12208772;19;20046;-84
2022/05/25 14:07:30;;;;;;;3.72;1.10;;;;;;;32.07;21.08;99778.25;12186011;19;20010;-82
2022/05/25 14:11:42;;;;;;;2.55;0.70;;;;;;;31.88;20.76;99772.75;12210070;19;20023;-81
2022/05/25 14:15:58;;;;;;;1.25;0.60;;;;;;;32.62;20.25;99763.09;12193724;19;20074;-84
2022/05/25 14:20:03;;;;;;;1.85;1.05;;;;;;;31.68;21.52;99769.34;12207048;19;20006;-85
2022/05/25 14:24:10;;;;;;;2.03;0.60;;;;;;;29.47;22.55;99767.97;12213218;19;20019;-82
2022/05/25 14:28:12;;;;;;;1.77;0.60;;;;;;;29.85;22.58;99769.88;12179333;19;20041;-82
2022/05/25 14:32:16;;;;;;;1.42;0.70;;;;;;;30.36;20.90;99772.28;12208780;19;20056;-86
2022/05/25 14:36:21;;;;;;;2.55;0.75;;;;;;;31.21;20.48;99763.19;12211851;19;20003;-82
2022/05/25 14:40:30;;;;;;;1.17;0.90;;;;;;;32.11;19.61;99758.31;12182848;19;20015;-83
2022/05/25 14:44:46;;;;;;;3.67;0.60;;;;;;;30.84;21.21;99760.34;12210778;19;20017;-82
2022/05/25 14:48:53;;;;;;;2.13;0.50;;;;;;;29.25;21.81;99758.25;12186024;19;20030;-82
2022/05/25 14:53:26;;;;;;;1.70;0.82;;;;;;;28.32;23.35;99764.81;12201666;19;20378;-82
2022/05/25 14:57:27;;;;;;;2.80;0.63;;;;;;;28.44;22.36;99772.38;12211706;19;20015;-81
2022/05/25 15:01:33;;;;;;;2.40;0.70;;;;;;;28.53;22.34;99770.16;12190288;19;20024;-81
2022/05/25 15:05:38;;;;;;;2.78;0.60;;;;;;;29.22;22.20;99761.84;12209086;19;20011;-81
2022/05/25 15:09:43;;;;;;;2.33;0.43;;;;;;;30.95;20.64;99760.47;12183312;19;20019;-82
2022/05/25 15:18:29;;;;;;;1.95;0.60;;;;;;;30.71;20.73;99767.47;12213034;19;20070;-83
2022/05/25 15:22:35;;;;;;;0.47;0.40;;;;;;;30.37;21.27;99765.41;12191287;19;20011;-82
2022/05/25 15:27:02;;;;;;;2.25;0.50;;;;;;;28.20;22.02;99773.44;12203609;19;20039;-81
2022/05/25 15:31:10;;;;;;;0.90;0.45;;;;;;;27.08;23.22;99775.44;12188470;19;20512;-84
2022/05/25 15:35:12;;;;;;;2.00;0.60;;;;;;;25.71;24.73;99780.06;12200892;19;20015;-82
2022/05/25 15:39:14;;;;;;;1.65;0.55;;;;;;;24.91;25.80;99772.84;12202441;19;20074;-83
2022/05/25 15:43:16;;;;;;;3.42;0.68;;;;;;;24.75;25.97;99776.31;12183905;19;20006;-80
2022/05/25 15:47:19;;;;;;;2.35;0.50;;;;;;;23.96;26.69;99780.84;12210480;19;20081;-81
2022/05/25 15:51:26;;;;;;;3.58;0.50;;;;;;;24.01;26.73;99777.03;12219547;19;20822;-83
2022/05/25 15:55:27;;;;;;;1.42;0.50;;;;;;;23.83;27.09;99773.50;12192757;19;20014;-82
2022/05/25 15:59:30;;;;;;;1.00;0.57;;;;;;;23.59;27.92;99799.41;12220881;19;20416;-83
2022/05/25 16:03:36;;;;;;;2.13;0.30;;;;;;;23.33;27.53;99796.69;12193710;19;20003;-80
2022/05/25 16:12:20;;;;;;;2.58;0.50;;;;;;;22.41;28.97;99788.50;12217555;19;20015;-83
2022/05/25 16:16:22;;;;;;;2.47;0.50;;;;;;;22.22;29.22;99792.44;12195330;19;20082;-80
2022/05/25 16:20:24;;;;;;;0.95;0.70;;;;;;;22.23;29.65;99788.47;12211968;19;20068;-81
2022/05/25 16:24:27;;;;;;;1.65;0.40;;;;;;;21.93;29.85;99809.03;12213330;19;20287;-80
2022/05/25 16:28:29;;;;;;;2.33;0.60;;;;;;;21.70;30.72;99792.28;12191946;19;20018;-80
2022/05/25 16:32:30;;;;;;;1.38;0.82;;;;;;;21.74;30.61;99798.88;12216437;19;20081;-80
2022/05/25 16:36:34;;;;;;;1.45;0.73;;;;;;;21.76;31.17;99795.78;12189627;19;20033;-79
2022/05/25 16:40:42;;;;;;;3.28;0.60;;;;;;;21.72;31.12;99804.00;12209928;19;20074;-79
2022/05/25 16:44:45;;;;;;;3.93;0.90;;;;;;;21.72;30.98;99797.59;12214465;19;20010;-79
2022/05/25 16:48:50;;;;;;;2.55;0.55;;;;;;;21.69;31.40;99806.66;12186295;19;20263;-78
2022/05/25 16:52:52;;;;;;;3.15;0.47;;;;;;;21.46;32.06;99814.28;12212406;19;20086;-81
2022/05/25 16:56:54;;;;;;;;;;;;;;;21.26;32.16;99810.84;12214264;19;20029;-80
2022/05/25 17:00:57;;;;;;;2.08;0.45;;;;;;;21.26;32.49;99816.44;12191165;19;19995;-78
2022/05/25 17:05:02;;;;;;;3.03;0.70;;;;;;;21.09;32.42;99808.78;12211006;19;20011;-79
2022/05/25 17:09:04;;;;;;;1.40;0.35;;;;;;;21.06;32.98;99812.22;12215842;19;20011;-81
2022/05/25 17:13:05;;;;;;;2.03;0.65;;;;;;;21.09;33.22;99817.19;12190548;19;20014;-79
2022/05/25 17:17:07;;;;;;;1.60;0.55;;;;;;;21.10;33.34;99821.63;12212059;19;20019;-79
2022/05/25 17:21:09;;;;;;;1.77;0.77;;;;;;;21.13;33.81;99825.78;12215888;19;20101;-79
2022/05/25 17:25:11;;;;;;;4.05;0.70;;;;;;;20.92;33.83;99834.69;12190636;19;20470;-83
2022/05/25 17:29:16;;;;;;;1.13;0.50;;;;;;;20.76;33.57;99829.78;12207272;19;20070;-80
2022/05/25 17:33:24;;;;;;;3.05;0.50;;;;;;;20.72;33.65;99826.81;12211068;19;20026;-82
2022/05/25 17:41:49;;;;;;;1.10;0.63;;;;;;;20.67;34.39;99840.91;12214150;19;20070;-80
2022/05/25 17:45:53;;;;;;;2.72;0.80;;;;;;;20.63;34.80;99842.69;12187462;19;20141;-85
2022/05/25 17:49:55;;;;;;;2.17;0.40;;;;;;;20.59;34.54;99844.50;12213846;19;20010;-80
2022/05/25 17:53:56;;;;;;;0.98;0.50;;;;;;;20.59;35.09;99853.72;12211282;19;20014;-80
2022/05/25 17:57:58;;;;;;;1.20;0.65;;;;;;;20.57;34.87;99850.38;12188610;19;20011;-77
2022/05/25 18:02:00;;;;;;;4.32;0.60;;;;;;;20.53;35.19;99852.19;12206512;19;20070;-77
2022/05/25 18:06:03;;;;;;;3.30;0.70;;;;;;;20.40;34.81;99866.97;12213156;19;20094;-78
2022/05/25 18:10:09;;;;;;;2.97;0.60;;;;;;;20.21;35.45;99861.53;12180200;19;20010;-80
2022/05/25 18:14:15;;;;;;;2.17;0.88;;;;;;;20.06;35.77;99867.47;12213293;19;20464;-77
2022/05/25 18:18:17;;;;;;;2.42;0.80;;;;;;;20.03;35.66;99864.13;12206871;19;20018;-80
2022/05/25 18:22:20;;;;;;;2.80;0.70;;;;;;;20.09;35.76;99873.25;12185769;19;20420;-78
2022/05/25 18:26:21;;;;;;;2.50;0.80;;;;;;;20.01;35.98;99877.59;12204665;19;20925;-78
2022/05/25 18:30:24;;;;;;;5.10;1.08;;;;;;;19.86;36.08;99877.91;12205586;19;20015;-79
2022/05/25 18:34:26;;;;;;;1.92;1.23;;;;;;;19.67;36.53;99878.00;12189732;19;20014;-78
2022/05/25 18:38:30;;;;;;;;;;;;;;;19.48;37.32;99880.00;12206700;19;20022;-79
2022/05/25 18:42:32;;;;;;;;;;;;;;;19.25;36.85;99888.25;12179414;19;20337;-78
2022/05/25 18:46:34;;;;;;;4.50;0.95;;;;;;;19.06;37.41;99884.63;12211169;19;19986;-79
2022/05/25 18:50:36;;;;;;;1.20;0.60;;;;;;;18.88;37.90;99895.53;12206559;19;20123;-79
2022/05/25 18:54:38;;;;;;;1.27;0.80;;;;;;;18.68;38.17;99899.44;12177985;19;20659;-82
2022/05/25 18:58:41;;;;;;;0.70;0.60;;;;;;;18.50;38.62;99900.28;12204462;19;20038;-79
2022/05/25 19:02:43;;;;;;;;;;;;;;;18.29;38.84;99904.44;12208207;19;20020;-80
2022/05/25 19:06:45;;;;;;;6.18;0.90;;;;;;;18.09;39.17;99903.59;12178009;19;19918;-82
2022/05/25 19:10:48;;;;;;;3.10;0.70;;;;;;;17.91;39.41;99921.09;12192783;19;20138;-79
2022/05/25 19:14:50;;;;;;;1.10;0.60;;;;;;;17.73;39.99;99926.25;12199341;19;20041;-80
2022/05/25 19:18:51;;;;;;;4.57;1.08;;;;;;;17.58;40.43;99932.00;12177075;19;20023;-80
2022/05/25 19:23:00;;;;;;;3.63;1.00;;;;;;;17.43;41.17;99926.53;12219341;19;20101;-81
2022/05/25 19:27:02;;;;;;;7.70;2.42;;;;;;;17.30;41.17;99926.09;12212624;19;20011;-79
2022/05/25 19:31:04;;;;;;;3.17;1.30;;;;;;;17.18;41.60;99928.44;12194012;19;20007;-82
2022/05/25 19:35:06;;;;;;;3.80;1.20;;;;;;;17.06;42.49;99936.31;12211179;19;20021;-80
2022/05/25 19:39:09;;;;;;;1.07;0.57;;;;;;;16.95;43.28;99941.13;12220462;19;20010;-85
2022/05/25 19:43:17;;;;;;;4.20;0.70;;;;;;;16.87;43.96;99946.50;12199653;19;20014;-82
2022/05/25 19:47:23;;;;;;;2.47;0.70;;;;;;;16.84;44.13;99947.91;12224462;19;20042;-83
2022/05/25 19:51:25;;;;;;;4.90;0.80;;;;;;;16.84;44.46;99959.88;12227737;19;20073;-83